Audrey — PD9331 — position and weather

sailwx.info

Track history (hours):
 
Tides and Currents Weather Stations Pressure Air Temp Water Temp Dewpoint Dewpoint Depression Visibility Wind Speed Wind Dir Waves Ship Positions

Audrey

Last reported at 2018-Apr-27 03:00 UTC. Time now 2018-Apr-27 03:05 UTC.
Position N 51°35' E 006°36'.

Length 85 m; draft 1.4 m.

Type: Ship. MMSI: 244660106.

Date/timePositionNaut miles runAvg speedWind from/ knotsBaromVisibWave heightAir tempDewpointWater temp
2018-Apr-27 03:00N 51°35' E 006°36'1 2.6
2018-Apr-27 02:30N 51°36' E 006°36'0 0.0
2018-Apr-27 02:00N 51°36' E 006°36'0 0.0
2018-Apr-27 01:30N 51°36' E 006°36'0 0.0
2018-Apr-27 01:01N 51°36' E 006°36'0 0.0
2018-Apr-27 00:30N 51°36' E 006°36'0 0.0
2018-Apr-27 00:01N 51°36' E 006°36'0 0.0
2018-Apr-26 23:30N 51°36' E 006°36'0 0.0
2018-Apr-26 23:00N 51°36' E 006°36'0 0.0
2018-Apr-26 22:30N 51°36' E 006°36'0 0.0
2018-Apr-26 22:00N 51°36' E 006°36'0 0.0
2018-Apr-26 21:31N 51°36' E 006°36'0 0.0
2018-Apr-26 21:00N 51°36' E 006°36'0 0.0
2018-Apr-26 20:31N 51°36' E 006°36'0 0.0
2018-Apr-26 20:00N 51°36' E 006°36'0 0.0
2018-Apr-26 19:31N 51°36' E 006°36'0 0.0
2018-Apr-26 19:01N 51°36' E 006°36'0 0.0
2018-Apr-26 18:30N 51°36' E 006°36'2 3.8
2018-Apr-26 18:00N 51°38' E 006°36'2 4.5
2018-Apr-26 17:30N 51°39' E 006°33'3 6.1
2018-Apr-26 17:00N 51°41' E 006°28'12 5.7
2018-Apr-26 14:55N 51°49' E 006°15'3 6.6
2018-Apr-26 14:30N 51°50' E 006°11'3 6.7
2018-Apr-26 14:00N 51°51' E 006°06'4 7.1
2018-Apr-26 13:30N 51°53' E 006°01'13 5.9
2018-Apr-26 11:21N 51°54' E 005°41'10 6.3
2018-Apr-26 09:49N 51°52' E 005°25'2 7.1
2018-Apr-26 09:30N 51°50' E 005°23'3 5.1
2018-Apr-26 08:59N 51°49' E 005°19'4 6.9
2018-Apr-26 08:26N 51°49' E 005°13'3 7.0
2018-Apr-26 07:59N 51°49' E 005°08'3 6.8
2018-Apr-26 07:30N 51°49' E 005°03'4 7.9
2018-Apr-26 07:01N 51°50' E 004°56'4 7.8
2018-Apr-26 06:31N 51°49' E 004°50'4 7.4
2018-Apr-26 06:00N 51°49' E 004°44'4 8.2
2018-Apr-26 05:31N 51°48' E 004°38'4 7.1
2018-Apr-26 05:01N 51°50' E 004°33'4 7.7
2018-Apr-26 04:30N 51°50' E 004°27'4 7.5
2018-Apr-26 04:01N 51°51' E 004°21'4 7.6
2018-Apr-26 03:31N 51°52' E 004°15'2 3.4
2018-Apr-26 03:00N 51°54' E 004°14'0 0.0
2018-Apr-26 02:30N 51°54' E 004°14'0 0.0
2018-Apr-26 02:00N 51°54' E 004°14'0 0.0
2018-Apr-26 01:31N 51°54' E 004°14'0 0.0
2018-Apr-26 01:00N 51°54' E 004°14'0 0.0
2018-Apr-26 00:30N 51°54' E 004°14'0 0.0
2018-Apr-26 00:00N 51°54' E 004°14'0 0.0
2018-Apr-25 23:31N 51°54' E 004°14'0 0.0
2018-Apr-25 23:01N 51°54' E 004°14'0 0.0
2018-Apr-25 22:30N 51°54' E 004°14'0 0.0
2018-Apr-25 22:00N 51°54' E 004°14'0 0.0
2018-Apr-25 21:30N 51°54' E 004°14'0 0.0
2018-Apr-25 21:00N 51°54' E 004°14'0 0.0
2018-Apr-25 20:30N 51°54' E 004°14'0 0.0
2018-Apr-25 20:00N 51°54' E 004°14'0 0.0
2018-Apr-25 19:30N 51°54' E 004°14'0 0.0
2018-Apr-25 19:00N 51°54' E 004°14'0 0.0
2018-Apr-25 18:31N 51°54' E 004°14'0 0.6
2018-Apr-25 18:00N 51°54' E 004°14'0 0.0
2018-Apr-25 17:30N 51°54' E 004°14'0 0.0
2018-Apr-25 17:00N 51°54' E 004°14'0 0.0
2018-Apr-25 16:30N 51°54' E 004°14'0 0.0
2018-Apr-25 16:00N 51°54' E 004°14'0 0.0
2018-Apr-25 15:31N 51°54' E 004°14'0 0.0
2018-Apr-25 15:01N 51°54' E 004°14'0 0.0
2018-Apr-25 14:30N 51°54' E 004°14'0 0.2
2018-Apr-25 14:00N 51°54' E 004°14'3 5.2
2018-Apr-25 13:30N 51°52' E 004°17'2 4.5
2018-Apr-25 13:00N 51°54' E 004°20'4 7.3
2018-Apr-25 12:31N 51°54' E 004°25'3 5.1
2018-Apr-25 12:00N 51°55' E 004°29'0 1.0
2018-Apr-25 11:30N 51°55' E 004°30'0 0.1
2018-Apr-25 11:00N 51°55' E 004°30'0 0.0
2018-Apr-25 10:30N 51°55' E 004°30'0 0.0
2018-Apr-25 10:00N 51°55' E 004°30'0 0.0
2018-Apr-25 09:31N 51°55' E 004°30'0 0.0
2018-Apr-25 09:01N 51°55' E 004°30'0 0.0
2018-Apr-25 08:30N 51°55' E 004°30'0 0.0
2018-Apr-25 08:01N 51°55' E 004°30'0 0.0
2018-Apr-25 07:31N 51°55' E 004°30'0 0.0
2018-Apr-25 07:00N 51°55' E 004°30'0 0.0
2018-Apr-25 06:31N 51°55' E 004°30'0 0.0
2018-Apr-25 06:00N 51°55' E 004°30'0 0.0
2018-Apr-25 05:30N 51°55' E 004°30'0 0.0
2018-Apr-25 05:01N 51°55' E 004°30'0 0.0
2018-Apr-25 04:31N 51°55' E 004°30'0 0.0
2018-Apr-25 04:00N 51°55' E 004°30'0 0.0
2018-Apr-25 03:31N 51°55' E 004°30'0 0.0
2018-Apr-25 03:01N 51°55' E 004°30'0 0.0
2018-Apr-25 02:30N 51°55' E 004°30'0 0.0
2018-Apr-25 02:00N 51°55' E 004°30'0 0.0
2018-Apr-25 01:30N 51°55' E 004°30'0 0.0
2018-Apr-25 01:00N 51°55' E 004°30'0 0.0
2018-Apr-25 00:30N 51°55' E 004°30'0 0.0
2018-Apr-25 00:00N 51°55' E 004°30'0 0.0
2018-Apr-24 23:30N 51°55' E 004°30'0 0.0
2018-Apr-24 23:00N 51°55' E 004°30'0 0.0
2018-Apr-24 22:31N 51°55' E 004°30'0 0.0
2018-Apr-24 22:00N 51°55' E 004°30'0 0.0
2018-Apr-24 21:31N 51°55' E 004°30'0 0.0
2018-Apr-24 21:00N 51°55' E 004°30'0 0.0
2018-Apr-24 20:31N 51°55' E 004°30'0 0.0
2018-Apr-24 20:00N 51°55' E 004°30'0 0.0
2018-Apr-24 19:30N 51°55' E 004°30'0 0.0
2018-Apr-24 19:01N 51°55' E 004°30'0 0.0
2018-Apr-24 18:30N 51°55' E 004°30'0 0.0
2018-Apr-24 18:00N 51°55' E 004°30'0 0.0
2018-Apr-24 17:31N 51°55' E 004°30'0 0.0
2018-Apr-24 17:00N 51°55' E 004°30'0 0.0
2018-Apr-24 16:30N 51°55' E 004°30'0 0.0
2018-Apr-24 16:00N 51°55' E 004°30'0 0.0
2018-Apr-24 15:30N 51°55' E 004°30'0 0.0
2018-Apr-24 15:00N 51°55' E 004°30'0 0.0
2018-Apr-24 14:30N 51°55' E 004°30'0 0.0
2018-Apr-24 14:00N 51°55' E 004°30'0 0.0
2018-Apr-24 13:30N 51°55' E 004°30'0 0.0
2018-Apr-24 13:00N 51°55' E 004°30'0 0.0
2018-Apr-24 12:30N 51°55' E 004°30'0 0.0
2018-Apr-24 12:00N 51°55' E 004°30'0 0.0
2018-Apr-24 11:30N 51°55' E 004°30'0 0.0
2018-Apr-24 11:01N 51°55' E 004°30'0 0.0
2018-Apr-24 10:31N 51°55' E 004°30'0 0.0
2018-Apr-24 10:00N 51°55' E 004°30'0 0.0
2018-Apr-24 09:30N 51°55' E 004°30'0 0.0
2018-Apr-24 09:00N 51°55' E 004°30'0 0.0
2018-Apr-24 08:30N 51°55' E 004°30'0 0.0
2018-Apr-24 08:00N 51°55' E 004°30'0 0.0
2018-Apr-24 07:30N 51°55' E 004°30'0 0.0
2018-Apr-24 07:00N 51°55' E 004°30'0 0.0
2018-Apr-24 06:30N 51°55' E 004°30'0 0.0
2018-Apr-24 06:00N 51°55' E 004°30'0 0.0
2018-Apr-24 05:30N 51°55' E 004°30'0 0.0
2018-Apr-24 05:00N 51°55' E 004°30'0 0.0
2018-Apr-24 04:30N 51°55' E 004°30'0 0.0
2018-Apr-24 04:01N 51°55' E 004°30'0 0.0
2018-Apr-24 03:30N 51°55' E 004°30'0 0.0
2018-Apr-24 03:00N 51°55' E 004°30'0 0.0
2018-Apr-24 02:31N 51°55' E 004°30'0 0.0
2018-Apr-24 02:01N 51°55' E 004°30'0 0.0
2018-Apr-24 01:30N 51°55' E 004°30'0 0.0
2018-Apr-24 01:00N 51°55' E 004°30'0 0.0
2018-Apr-24 00:31N 51°55' E 004°30'0 0.0
2018-Apr-24 00:00N 51°55' E 004°30'0 0.0
2018-Apr-23 23:30N 51°55' E 004°30'0 0.0
2018-Apr-23 23:00N 51°55' E 004°30'0 0.0
2018-Apr-23 22:30N 51°55' E 004°30'0 0.0
2018-Apr-23 22:00N 51°55' E 004°30'0 0.0
2018-Apr-23 21:30N 51°55' E 004°30'0 0.0
2018-Apr-23 21:00N 51°55' E 004°30'0 0.0
2018-Apr-23 20:30N 51°55' E 004°30'0 0.0
2018-Apr-23 20:00N 51°55' E 004°30'0 0.0
2018-Apr-23 19:30N 51°55' E 004°30'0 0.0
2018-Apr-23 19:00N 51°55' E 004°30'0 0.0
2018-Apr-23 18:30N 51°55' E 004°30'0 0.0
2018-Apr-23 18:01N 51°55' E 004°30'0 0.0
2018-Apr-23 17:31N 51°55' E 004°30'0 0.0
2018-Apr-23 17:00N 51°55' E 004°30'0 0.0
2018-Apr-23 16:30N 51°55' E 004°30'0 0.0
2018-Apr-23 16:00N 51°55' E 004°30'0 0.0
2018-Apr-23 15:30N 51°55' E 004°30'0 0.0
2018-Apr-23 15:00N 51°55' E 004°30'0 0.0
2018-Apr-23 14:30N 51°55' E 004°30'0 0.0
2018-Apr-23 14:00N 51°55' E 004°30'0 0.0
2018-Apr-23 13:30N 51°55' E 004°30'0 0.0
2018-Apr-23 13:01N 51°55' E 004°30'0 0.0
2018-Apr-23 12:30N 51°55' E 004°30'0 0.0
2018-Apr-23 12:00N 51°55' E 004°30'0 0.0
2018-Apr-23 11:30N 51°55' E 004°30'0 0.0
2018-Apr-23 11:00N 51°55' E 004°30'0 0.0
2018-Apr-23 10:30N 51°55' E 004°30'0 0.0
2018-Apr-23 10:00N 51°55' E 004°30'0 0.0
2018-Apr-23 09:30N 51°55' E 004°30'0 0.0
2018-Apr-23 09:00N 51°55' E 004°30'0 0.0
2018-Apr-23 08:30N 51°55' E 004°30'0 0.0
2018-Apr-23 08:00N 51°55' E 004°30'0 0.0
2018-Apr-23 07:31N 51°55' E 004°30'0 0.0
2018-Apr-23 07:00N 51°55' E 004°30'0 0.0
2018-Apr-23 06:30N 51°55' E 004°30'0 0.0
2018-Apr-23 06:00N 51°55' E 004°30'0 0.0
2018-Apr-23 05:30N 51°55' E 004°30'0 0.0
2018-Apr-23 05:00N 51°55' E 004°30'0 0.0
2018-Apr-23 04:30N 51°55' E 004°30'0 0.0
2018-Apr-23 04:00N 51°55' E 004°30'0 0.0
2018-Apr-23 03:30N 51°55' E 004°30'0 0.0
2018-Apr-23 03:01N 51°55' E 004°30'0 0.0
2018-Apr-23 02:31N 51°55' E 004°30'0 0.0
2018-Apr-23 02:00N 51°55' E 004°30'0 0.0
2018-Apr-23 01:31N 51°55' E 004°30'0 0.0
2018-Apr-23 01:00N 51°55' E 004°30'0 0.0
2018-Apr-23 00:30N 51°55' E 004°30'0 0.0
2018-Apr-23 00:00N 51°55' E 004°30'0 0.0
2018-Apr-22 23:30N 51°55' E 004°30'0 0.0
2018-Apr-22 23:00N 51°55' E 004°30'0 0.0
2018-Apr-22 22:30N 51°55' E 004°30'0 0.0
2018-Apr-22 22:00N 51°55' E 004°30'0 0.0
2018-Apr-22 21:31N 51°55' E 004°30'0 0.0
2018-Apr-22 21:01N 51°55' E 004°30'0 0.0
2018-Apr-22 20:30N 51°55' E 004°30'0 0.0
2018-Apr-22 20:00N 51°55' E 004°30'0 0.0
2018-Apr-22 19:30N 51°55' E 004°30'0 0.0
2018-Apr-22 19:01N 51°55' E 004°30'0 0.0
2018-Apr-22 18:30N 51°55' E 004°30'0 0.0
2018-Apr-22 18:00N 51°55' E 004°30'0 0.0
2018-Apr-22 17:31N 51°55' E 004°30'0 0.0
2018-Apr-22 17:00N 51°55' E 004°30'0 0.0
2018-Apr-22 16:30N 51°55' E 004°30'0 0.0
2018-Apr-22 16:00N 51°55' E 004°30'0 0.0
2018-Apr-22 15:30N 51°55' E 004°30'0 0.0
2018-Apr-22 15:00N 51°55' E 004°30'0 0.0
2018-Apr-22 14:30N 51°55' E 004°30'0 0.0
2018-Apr-22 14:01N 51°55' E 004°30'0 0.0
2018-Apr-22 13:30N 51°55' E 004°30'0 0.0
2018-Apr-22 13:00N 51°55' E 004°30'0 0.0
2018-Apr-22 12:31N 51°55' E 004°30'0 0.0
2018-Apr-22 12:00N 51°55' E 004°30'0 0.0
2018-Apr-22 11:31N 51°55' E 004°30'0 0.0
2018-Apr-22 11:00N 51°55' E 004°30'0 0.0
2018-Apr-22 10:30N 51°55' E 004°30'0 0.0
2018-Apr-22 10:01N 51°55' E 004°30'0 0.0
2018-Apr-22 09:30N 51°55' E 004°30'0 0.0
2018-Apr-22 09:00N 51°55' E 004°30'0 0.0
2018-Apr-22 08:30N 51°55' E 004°30'0 0.0
2018-Apr-22 08:00N 51°55' E 004°30'0 0.0
2018-Apr-22 07:30N 51°55' E 004°30'0 0.0
2018-Apr-22 07:01N 51°55' E 004°30'0 0.0
2018-Apr-22 06:30N 51°55' E 004°30'0 0.0
2018-Apr-22 06:00N 51°55' E 004°30'0 0.0
2018-Apr-22 05:30N 51°55' E 004°30'0 0.0
2018-Apr-22 05:00N 51°55' E 004°30'0 0.0
2018-Apr-22 04:30N 51°55' E 004°30'0 0.0
2018-Apr-22 04:01N 51°55' E 004°30'0 0.0
2018-Apr-22 03:31N 51°55' E 004°30'0 0.0
2018-Apr-22 03:00N 51°55' E 004°30'0 0.0
2018-Apr-22 02:30N 51°55' E 004°30'0 0.0
2018-Apr-22 02:00N 51°55' E 004°30'0 0.0
2018-Apr-22 01:31N 51°55' E 004°30'0 0.0
2018-Apr-22 01:00N 51°55' E 004°30'0 0.0
2018-Apr-22 00:30N 51°55' E 004°30'0 0.0
2018-Apr-22 00:00N 51°55' E 004°30'0 0.0
2018-Apr-21 23:31N 51°55' E 004°30'0 0.0
2018-Apr-21 23:01N 51°55' E 004°30'0 0.0
2018-Apr-21 22:31N 51°55' E 004°30'0 0.0
2018-Apr-21 22:00N 51°55' E 004°30'0 0.0
2018-Apr-21 21:30N 51°55' E 004°30'0 0.0
2018-Apr-21 21:00N 51°55' E 004°30'0 0.0
2018-Apr-21 20:30N 51°55' E 004°30'0 0.0
2018-Apr-21 20:00N 51°55' E 004°30'0 0.0
2018-Apr-21 19:30N 51°55' E 004°30'0 0.0
2018-Apr-21 19:00N 51°55' E 004°30'0 0.0
2018-Apr-21 18:31N 51°55' E 004°30'0 0.0
2018-Apr-21 18:01N 51°55' E 004°30'0 0.0
2018-Apr-21 17:31N 51°55' E 004°30'0 0.0
2018-Apr-21 17:01N 51°55' E 004°30'0 0.0
2018-Apr-21 16:30N 51°55' E 004°30'0 0.0
2018-Apr-21 16:00N 51°55' E 004°30'0 0.0
2018-Apr-21 15:31N 51°55' E 004°30'0 0.0
2018-Apr-21 15:01N 51°55' E 004°30'0 0.0
2018-Apr-21 14:30N 51°55' E 004°30'0 0.0
2018-Apr-21 14:00N 51°55' E 004°30'0 0.0
2018-Apr-21 13:30N 51°55' E 004°30'0 0.0
2018-Apr-21 13:00N 51°55' E 004°30'0 0.0
2018-Apr-21 12:30N 51°55' E 004°30'0 0.0
2018-Apr-21 12:01N 51°55' E 004°30'0 0.0
2018-Apr-21 11:31N 51°55' E 004°30'0 0.0
2018-Apr-21 11:00N 51°55' E 004°30'0 0.0
2018-Apr-21 10:30N 51°55' E 004°30'0 0.0
2018-Apr-21 10:00N 51°55' E 004°30'0 0.0
2018-Apr-21 09:31N 51°55' E 004°30'0 0.0
2018-Apr-21 09:00N 51°55' E 004°30'0 0.0
2018-Apr-21 08:30N 51°55' E 004°30'0 0.0
2018-Apr-21 08:00N 51°55' E 004°30'0 0.0
2018-Apr-21 07:30N 51°55' E 004°30'0 0.0
2018-Apr-21 07:00N 51°55' E 004°30'0 0.0
2018-Apr-21 06:30N 51°55' E 004°30'0 0.0
2018-Apr-21 06:00N 51°55' E 004°30'0 0.0
2018-Apr-21 05:31N 51°55' E 004°30'0 0.0
2018-Apr-21 05:00N 51°55' E 004°30'0 0.0
2018-Apr-21 04:30N 51°55' E 004°30'0 0.0
2018-Apr-21 04:01N 51°55' E 004°30'0 0.0
2018-Apr-21 03:30N 51°55' E 004°30'0 0.0
2018-Apr-21 03:01N 51°55' E 004°30'0 0.0
2018-Apr-21 02:30N 51°55' E 004°30'0 0.0
2018-Apr-21 02:00N 51°55' E 004°30'0 0.0
2018-Apr-21 01:30N 51°55' E 004°30'0 0.0
2018-Apr-21 01:00N 51°55' E 004°30'0 0.0
2018-Apr-21 00:31N 51°55' E 004°30'0 0.0
2018-Apr-21 00:01N 51°55' E 004°30'0 0.0
2018-Apr-20 23:30N 51°55' E 004°30'0 0.0
2018-Apr-20 23:00N 51°55' E 004°30'0 0.0
2018-Apr-20 22:30N 51°55' E 004°30'0 0.0
2018-Apr-20 22:00N 51°55' E 004°30'0 0.0
2018-Apr-20 21:30N 51°55' E 004°30'0 0.0
2018-Apr-20 21:01N 51°55' E 004°30'0 0.0
2018-Apr-20 20:30N 51°55' E 004°30'0 0.0
2018-Apr-20 20:00N 51°55' E 004°30'0 0.0
2018-Apr-20 19:31N 51°55' E 004°30'0 0.0
2018-Apr-20 19:00N 51°55' E 004°30'0 0.0
2018-Apr-20 18:31N 51°55' E 004°30'0 0.0
2018-Apr-20 18:01N 51°55' E 004°30'0 0.0
2018-Apr-20 17:30N 51°55' E 004°30'0 0.0
2018-Apr-20 17:01N 51°55' E 004°30'0 0.0
2018-Apr-20 16:31N 51°55' E 004°30'0 0.0
2018-Apr-20 16:00N 51°55' E 004°30'0 0.0
2018-Apr-20 15:30N 51°55' E 004°30'0 0.0
2018-Apr-20 15:01N 51°55' E 004°30'0 0.0
2018-Apr-20 14:31N 51°55' E 004°30'0 0.0
2018-Apr-20 14:00N 51°55' E 004°30'0 0.0
2018-Apr-20 13:30N 51°55' E 004°30'0 0.0
2018-Apr-20 13:00N 51°55' E 004°30'0 0.0
2018-Apr-20 12:30N 51°55' E 004°30'0 0.0
2018-Apr-20 12:01N 51°55' E 004°30'0 0.0
2018-Apr-20 11:30N 51°55' E 004°30'0 0.0
2018-Apr-20 11:00N 51°55' E 004°30'0 0.0
2018-Apr-20 10:30N 51°55' E 004°30'0 0.0
2018-Apr-20 10:00N 51°55' E 004°30'0 0.0
2018-Apr-20 09:30N 51°55' E 004°30'0 0.0
2018-Apr-20 09:00N 51°55' E 004°30'0 0.0
2018-Apr-20 08:31N 51°55' E 004°30'0 0.0
2018-Apr-20 08:00N 51°55' E 004°30'0 0.0
2018-Apr-20 07:31N 51°55' E 004°30'0 0.0
2018-Apr-20 07:00N 51°55' E 004°30'0 0.0
2018-Apr-20 06:30N 51°55' E 004°30'0 0.0
2018-Apr-20 06:00N 51°55' E 004°30'0 0.0
2018-Apr-20 05:31N 51°55' E 004°30'0 0.0
2018-Apr-20 05:00N 51°55' E 004°30'0 0.0
2018-Apr-20 04:30N 51°55' E 004°30'0 0.0
2018-Apr-20 04:00N 51°55' E 004°30'0 0.0
2018-Apr-20 03:31N 51°55' E 004°30'0 0.0
2018-Apr-20 03:00N 51°55' E 004°30'0 0.0
2018-Apr-20 02:31N 51°55' E 004°30'0 0.0
2018-Apr-20 02:01N 51°55' E 004°30'0 0.0
2018-Apr-20 01:30N 51°55' E 004°30'0 0.0
2018-Apr-20 01:00N 51°55' E 004°30'0 0.0
2018-Apr-20 00:30N 51°55' E 004°30'0 0.0
2018-Apr-20 00:00N 51°55' E 004°30'0 0.0
2018-Apr-19 23:30N 51°55' E 004°30'0 0.0
2018-Apr-19 23:00N 51°55' E 004°30'0 0.0
2018-Apr-19 22:31N 51°55' E 004°30'0 0.0
2018-Apr-19 22:01N 51°55' E 004°30'0 0.0
2018-Apr-19 21:30N 51°55' E 004°30'0 0.0
2018-Apr-19 21:00N 51°55' E 004°30'0 0.0
2018-Apr-19 20:31N 51°55' E 004°30'0 0.0
2018-Apr-19 20:00N 51°55' E 004°30'0 0.0
2018-Apr-19 19:30N 51°55' E 004°30'0 0.0
2018-Apr-19 19:01N 51°55' E 004°30'0 0.0
2018-Apr-19 18:31N 51°55' E 004°30'0 0.0
2018-Apr-19 18:01N 51°55' E 004°30'0 0.0
2018-Apr-19 17:31N 51°55' E 004°30'0 0.0
2018-Apr-19 17:01N 51°55' E 004°30'0 0.0
2018-Apr-19 16:31N 51°55' E 004°30'0 0.0
2018-Apr-19 16:00N 51°55' E 004°30'0 0.0
2018-Apr-19 15:31N 51°55' E 004°30'0 0.0
2018-Apr-19 15:01N 51°55' E 004°30'0 0.0
2018-Apr-19 14:31N 51°55' E 004°30'0 0.0
2018-Apr-19 14:00N 51°55' E 004°30'0 0.0
2018-Apr-19 13:31N 51°55' E 004°30'0 0.0
2018-Apr-19 13:01N 51°55' E 004°30'0 0.0
2018-Apr-19 12:30N 51°55' E 004°30'0 0.0
2018-Apr-19 12:01N 51°55' E 004°30'0 0.0
2018-Apr-19 11:30N 51°55' E 004°30'0 0.0
2018-Apr-19 11:00N 51°55' E 004°30'0 0.0
2018-Apr-19 10:30N 51°55' E 004°30'0 0.0
2018-Apr-19 10:01N 51°55' E 004°30'0 0.0
2018-Apr-19 09:31N 51°55' E 004°30'0 0.0
2018-Apr-19 09:01N 51°55' E 004°30'0 0.0
2018-Apr-19 08:30N 51°55' E 004°30'0 0.0
2018-Apr-19 08:00N 51°55' E 004°30'0 0.0
2018-Apr-19 07:30N 51°55' E 004°30'0 0.0
2018-Apr-19 07:00N 51°55' E 004°30'0 0.0
2018-Apr-19 06:30N 51°55' E 004°30'0 0.0
2018-Apr-19 06:01N 51°55' E 004°30'0 0.0
2018-Apr-19 05:31N 51°55' E 004°30'0 0.0
2018-Apr-19 05:01N 51°55' E 004°30'0 0.0
2018-Apr-19 04:31N 51°55' E 004°30'0 0.0
2018-Apr-19 04:01N 51°55' E 004°30'0 0.0
2018-Apr-19 03:31N 51°55' E 004°30'0 0.0
2018-Apr-19 03:00N 51°55' E 004°30'0 0.0
2018-Apr-19 02:30N 51°55' E 004°30'0 0.0
2018-Apr-19 02:01N 51°55' E 004°30'0 0.0
2018-Apr-19 01:30N 51°55' E 004°30'0 0.0
2018-Apr-19 01:00N 51°55' E 004°30'0 0.0
2018-Apr-19 00:30N 51°55' E 004°30'0 0.0
2018-Apr-19 00:00N 51°55' E 004°30'0 0.0
2018-Apr-18 23:30N 51°55' E 004°30'0 0.0
2018-Apr-18 23:00N 51°55' E 004°30'0 0.0
2018-Apr-18 22:30N 51°55' E 004°30'0 0.0
2018-Apr-18 22:00N 51°55' E 004°30'0 0.0
2018-Apr-18 21:30N 51°55' E 004°30'0 0.0
2018-Apr-18 21:00N 51°55' E 004°30'0 0.0
2018-Apr-18 20:30N 51°55' E 004°30'0 0.0
2018-Apr-18 20:00N 51°55' E 004°30'0 0.0
2018-Apr-18 19:30N 51°55' E 004°30'0 0.0
2018-Apr-18 19:00N 51°55' E 004°30'0 0.0
2018-Apr-18 18:31N 51°55' E 004°30'0 0.0
2018-Apr-18 18:01N 51°55' E 004°30'0 0.0
2018-Apr-18 17:30N 51°55' E 004°30'0 0.0
2018-Apr-18 17:00N 51°55' E 004°30'0 0.0
2018-Apr-18 16:31N 51°55' E 004°30'0 0.0
2018-Apr-18 16:01N 51°55' E 004°30'0 0.0
2018-Apr-18 15:31N 51°55' E 004°30'0 0.0
2018-Apr-18 15:00N 51°55' E 004°30'0 0.0
2018-Apr-18 14:30N 51°55' E 004°30'0 0.0
2018-Apr-18 14:00N 51°55' E 004°30'0 0.0
2018-Apr-18 13:30N 51°55' E 004°30'0 0.0
2018-Apr-18 13:01N 51°55' E 004°30'0 0.0
2018-Apr-18 12:30N 51°55' E 004°30'0 0.0
2018-Apr-18 12:00N 51°55' E 004°30'0 0.0
2018-Apr-18 11:30N 51°55' E 004°30'0 0.0
2018-Apr-18 11:00N 51°55' E 004°30'0 0.0
2018-Apr-18 10:30N 51°55' E 004°30'0 0.0
2018-Apr-18 10:01N 51°55' E 004°30'0 0.0
2018-Apr-18 09:30N 51°55' E 004°30'0 0.0
2018-Apr-18 09:01N 51°55' E 004°30'0 0.0
2018-Apr-18 08:30N 51°55' E 004°30'0 0.0
2018-Apr-18 08:01N 51°55' E 004°30'0 0.0
2018-Apr-18 07:30N 51°55' E 004°30'0 0.0
2018-Apr-18 07:00N 51°55' E 004°30'0 0.0
2018-Apr-18 06:30N 51°55' E 004°30'0 0.0
2018-Apr-18 06:01N 51°55' E 004°30'0 0.0
2018-Apr-18 05:31N 51°55' E 004°30'0 0.0
2018-Apr-18 05:00N 51°55' E 004°30'0 0.0
2018-Apr-18 04:31N 51°55' E 004°30'0 0.0
2018-Apr-18 04:01N 51°55' E 004°30'0 0.0
2018-Apr-18 03:31N 51°55' E 004°30'0 0.0
2018-Apr-18 03:00N 51°55' E 004°30'0 0.0
2018-Apr-18 02:30N 51°55' E 004°30'0 0.0
2018-Apr-18 02:00N 51°55' E 004°30'0 0.0
2018-Apr-18 01:30N 51°55' E 004°30'0 0.0
2018-Apr-18 01:00N 51°55' E 004°30'0 0.0
2018-Apr-18 00:31N 51°55' E 004°30'0 0.0
2018-Apr-18 00:00N 51°55' E 004°30'0 0.0
2018-Apr-17 23:30N 51°55' E 004°30'0 0.0
2018-Apr-17 23:01N 51°55' E 004°30'0 0.0
2018-Apr-17 22:31N 51°55' E 004°30'0 0.0
2018-Apr-17 22:00N 51°55' E 004°30'0 0.0
2018-Apr-17 21:30N 51°55' E 004°30'0 0.0
2018-Apr-17 21:00N 51°55' E 004°30'0 0.0
2018-Apr-17 20:30N 51°55' E 004°30'0 0.0
2018-Apr-17 20:00N 51°55' E 004°30'0 0.0
2018-Apr-17 19:31N 51°55' E 004°30'0 0.0
2018-Apr-17 19:00N 51°55' E 004°30'0 0.0
2018-Apr-17 18:31N 51°55' E 004°30'0 0.0
2018-Apr-17 18:01N 51°55' E 004°30'0 0.0
2018-Apr-17 17:30N 51°55' E 004°30'0 0.0
2018-Apr-17 17:00N 51°55' E 004°30'0 0.0
2018-Apr-17 16:30N 51°55' E 004°30'0 0.0
2018-Apr-17 16:00N 51°55' E 004°30'0 0.0
2018-Apr-17 15:30N 51°55' E 004°30'0 0.1
2018-Apr-17 15:00N 51°55' E 004°30'0 0.0
2018-Apr-17 14:31N 51°55' E 004°30'1 1.1
2018-Apr-17 14:00N 51°55' E 004°29'2 4.1
2018-Apr-17 13:30N 51°54' E 004°33'5 9.8
2018-Apr-17 13:00N 51°52' E 004°39'3 5.2
2018-Apr-17 12:30N 51°49' E 004°40'0 0.0
2018-Apr-17 12:01N 51°49' E 004°40'1 1.8
2018-Apr-17 11:31N 51°49' E 004°41'510.5
2018-Apr-17 11:01N 51°49' E 004°49'510.3
2018-Apr-17 10:31N 51°50' E 004°58'510.5
2018-Apr-17 10:00N 51°49' E 005°06'510.3
2018-Apr-17 09:29N 51°49' E 005°15'5 9.6
2018-Apr-17 09:00N 51°49' E 005°22'11 9.7
2018-Apr-17 07:52N 51°54' E 005°38'11 9.4
2018-Apr-17 06:44N 51°53' E 005°55'2 9.7
2018-Apr-17 06:30N 51°51' E 005°58'3 5.5
2018-Apr-17 06:00N 51°53' E 006°02'  
Track history (hours):
 
Tides and Currents Weather Stations Pressure Air Temp Water Temp Dewpoint Dewpoint Depression Visibility Wind Speed Wind Dir Waves Ship Positions

Audrey

Last reported at 2018-Apr-27 03:00 UTC. Time now 2018-Apr-27 03:05 UTC.
Position N 51°35' E 006°36'.

Length 85 m; draft 1.4 m.

Type: Ship. MMSI: 244660106.

Date/timePositionNaut miles runAvg speedWind from/ knotsBaromVisibWave heightAir tempDewpointWater temp
2018-Apr-27 03:00N 51°35' E 006°36'1 2.6
2018-Apr-27 02:30N 51°36' E 006°36'0 0.0
2018-Apr-27 02:00N 51°36' E 006°36'0 0.0
2018-Apr-27 01:30N 51°36' E 006°36'0 0.0
2018-Apr-27 01:01N 51°36' E 006°36'0 0.0
2018-Apr-27 00:30N 51°36' E 006°36'0 0.0
2018-Apr-27 00:01N 51°36' E 006°36'0 0.0
2018-Apr-26 23:30N 51°36' E 006°36'0 0.0
2018-Apr-26 23:00N 51°36' E 006°36'0 0.0
2018-Apr-26 22:30N 51°36' E 006°36'0 0.0
2018-Apr-26 22:00N 51°36' E 006°36'0 0.0
2018-Apr-26 21:31N 51°36' E 006°36'0 0.0
2018-Apr-26 21:00N 51°36' E 006°36'0 0.0
2018-Apr-26 20:31N 51°36' E 006°36'0 0.0
2018-Apr-26 20:00N 51°36' E 006°36'0 0.0
2018-Apr-26 19:31N 51°36' E 006°36'0 0.0
2018-Apr-26 19:01N 51°36' E 006°36'0 0.0
2018-Apr-26 18:30N 51°36' E 006°36'2 3.8
2018-Apr-26 18:00N 51°38' E 006°36'2 4.5
2018-Apr-26 17:30N 51°39' E 006°33'3 6.1
2018-Apr-26 17:00N 51°41' E 006°28'12 5.7
2018-Apr-26 14:55N 51°49' E 006°15'3 6.6
2018-Apr-26 14:30N 51°50' E 006°11'3 6.7
2018-Apr-26 14:00N 51°51' E 006°06'4 7.1
2018-Apr-26 13:30N 51°53' E 006°01'13 5.9
2018-Apr-26 11:21N 51°54' E 005°41'10 6.3
2018-Apr-26 09:49N 51°52' E 005°25'2 7.1
2018-Apr-26 09:30N 51°50' E 005°23'3 5.1
2018-Apr-26 08:59N 51°49' E 005°19'4 6.9
2018-Apr-26 08:26N 51°49' E 005°13'3 7.0
2018-Apr-26 07:59N 51°49' E 005°08'3 6.8
2018-Apr-26 07:30N 51°49' E 005°03'4 7.9
2018-Apr-26 07:01N 51°50' E 004°56'4 7.8
2018-Apr-26 06:31N 51°49' E 004°50'4 7.4
2018-Apr-26 06:00N 51°49' E 004°44'4 8.2
2018-Apr-26 05:31N 51°48' E 004°38'4 7.1
2018-Apr-26 05:01N 51°50' E 004°33'4 7.7
2018-Apr-26 04:30N 51°50' E 004°27'4 7.5
2018-Apr-26 04:01N 51°51' E 004°21'4 7.6
2018-Apr-26 03:31N 51°52' E 004°15'2 3.4
2018-Apr-26 03:00N 51°54' E 004°14'0 0.0
2018-Apr-26 02:30N 51°54' E 004°14'0 0.0
2018-Apr-26 02:00N 51°54' E 004°14'0 0.0
2018-Apr-26 01:31N 51°54' E 004°14'0 0.0
2018-Apr-26 01:00N 51°54' E 004°14'0 0.0
2018-Apr-26 00:30N 51°54' E 004°14'0 0.0
2018-Apr-26 00:00N 51°54' E 004°14'0 0.0
2018-Apr-25 23:31N 51°54' E 004°14'0 0.0
2018-Apr-25 23:01N 51°54' E 004°14'0 0.0
2018-Apr-25 22:30N 51°54' E 004°14'0 0.0
2018-Apr-25 22:00N 51°54' E 004°14'0 0.0
2018-Apr-25 21:30N 51°54' E 004°14'0 0.0
2018-Apr-25 21:00N 51°54' E 004°14'0 0.0
2018-Apr-25 20:30N 51°54' E 004°14'0 0.0
2018-Apr-25 20:00N 51°54' E 004°14'0 0.0
2018-Apr-25 19:30N 51°54' E 004°14'0 0.0
2018-Apr-25 19:00N 51°54' E 004°14'0 0.0
2018-Apr-25 18:31N 51°54' E 004°14'0 0.6
2018-Apr-25 18:00N 51°54' E 004°14'0 0.0
2018-Apr-25 17:30N 51°54' E 004°14'0 0.0
2018-Apr-25 17:00N 51°54' E 004°14'0 0.0
2018-Apr-25 16:30N 51°54' E 004°14'0 0.0
2018-Apr-25 16:00N 51°54' E 004°14'0 0.0
2018-Apr-25 15:31N 51°54' E 004°14'0 0.0
2018-Apr-25 15:01N 51°54' E 004°14'0 0.0
2018-Apr-25 14:30N 51°54' E 004°14'0 0.2
2018-Apr-25 14:00N 51°54' E 004°14'3 5.2
2018-Apr-25 13:30N 51°52' E 004°17'2 4.5
2018-Apr-25 13:00N 51°54' E 004°20'4 7.3
2018-Apr-25 12:31N 51°54' E 004°25'3 5.1
2018-Apr-25 12:00N 51°55' E 004°29'0 1.0
2018-Apr-25 11:30N 51°55' E 004°30'0 0.1
2018-Apr-25 11:00N 51°55' E 004°30'0 0.0
2018-Apr-25 10:30N 51°55' E 004°30'0 0.0
2018-Apr-25 10:00N 51°55' E 004°30'0 0.0
2018-Apr-25 09:31N 51°55' E 004°30'0 0.0
2018-Apr-25 09:01N 51°55' E 004°30'0 0.0
2018-Apr-25 08:30N 51°55' E 004°30'0 0.0
2018-Apr-25 08:01N 51°55' E 004°30'0 0.0
2018-Apr-25 07:31N 51°55' E 004°30'0 0.0
2018-Apr-25 07:00N 51°55' E 004°30'0 0.0
2018-Apr-25 06:31N 51°55' E 004°30'0 0.0
2018-Apr-25 06:00N 51°55' E 004°30'0 0.0
2018-Apr-25 05:30N 51°55' E 004°30'0 0.0
2018-Apr-25 05:01N 51°55' E 004°30'0 0.0
2018-Apr-25 04:31N 51°55' E 004°30'0 0.0
2018-Apr-25 04:00N 51°55' E 004°30'0 0.0
2018-Apr-25 03:31N 51°55' E 004°30'0 0.0
2018-Apr-25 03:01N 51°55' E 004°30'0 0.0
2018-Apr-25 02:30N 51°55' E 004°30'0 0.0
2018-Apr-25 02:00N 51°55' E 004°30'0 0.0
2018-Apr-25 01:30N 51°55' E 004°30'0 0.0
2018-Apr-25 01:00N 51°55' E 004°30'0 0.0
2018-Apr-25 00:30N 51°55' E 004°30'0 0.0
2018-Apr-25 00:00N 51°55' E 004°30'0 0.0
2018-Apr-24 23:30N 51°55' E 004°30'0 0.0
2018-Apr-24 23:00N 51°55' E 004°30'0 0.0
2018-Apr-24 22:31N 51°55' E 004°30'0 0.0
2018-Apr-24 22:00N 51°55' E 004°30'0 0.0
2018-Apr-24 21:31N 51°55' E 004°30'0 0.0
2018-Apr-24 21:00N 51°55' E 004°30'0 0.0
2018-Apr-24 20:31N 51°55' E 004°30'0 0.0
2018-Apr-24 20:00N 51°55' E 004°30'0 0.0
2018-Apr-24 19:30N 51°55' E 004°30'0 0.0
2018-Apr-24 19:01N 51°55' E 004°30'0 0.0
2018-Apr-24 18:30N 51°55' E 004°30'0 0.0
2018-Apr-24 18:00N 51°55' E 004°30'0 0.0
2018-Apr-24 17:31N 51°55' E 004°30'0 0.0
2018-Apr-24 17:00N 51°55' E 004°30'0 0.0
2018-Apr-24 16:30N 51°55' E 004°30'0 0.0
2018-Apr-24 16:00N 51°55' E 004°30'0 0.0
2018-Apr-24 15:30N 51°55' E 004°30'0 0.0
2018-Apr-24 15:00N 51°55' E 004°30'0 0.0
2018-Apr-24 14:30N 51°55' E 004°30'0 0.0
2018-Apr-24 14:00N 51°55' E 004°30'0 0.0
2018-Apr-24 13:30N 51°55' E 004°30'0 0.0
2018-Apr-24 13:00N 51°55' E 004°30'0 0.0
2018-Apr-24 12:30N 51°55' E 004°30'0 0.0
2018-Apr-24 12:00N 51°55' E 004°30'0 0.0
2018-Apr-24 11:30N 51°55' E 004°30'0 0.0
2018-Apr-24 11:01N 51°55' E 004°30'0 0.0
2018-Apr-24 10:31N 51°55' E 004°30'0 0.0
2018-Apr-24 10:00N 51°55' E 004°30'0 0.0
2018-Apr-24 09:30N 51°55' E 004°30'0 0.0
2018-Apr-24 09:00N 51°55' E 004°30'0 0.0
2018-Apr-24 08:30N 51°55' E 004°30'0 0.0
2018-Apr-24 08:00N 51°55' E 004°30'0 0.0
2018-Apr-24 07:30N 51°55' E 004°30'0 0.0
2018-Apr-24 07:00N 51°55' E 004°30'0 0.0
2018-Apr-24 06:30N 51°55' E 004°30'0 0.0
2018-Apr-24 06:00N 51°55' E 004°30'0 0.0
2018-Apr-24 05:30N 51°55' E 004°30'0 0.0
2018-Apr-24 05:00N 51°55' E 004°30'0 0.0
2018-Apr-24 04:30N 51°55' E 004°30'0 0.0
2018-Apr-24 04:01N 51°55' E 004°30'0 0.0
2018-Apr-24 03:30N 51°55' E 004°30'0 0.0
2018-Apr-24 03:00N 51°55' E 004°30'0 0.0
2018-Apr-24 02:31N 51°55' E 004°30'0 0.0
2018-Apr-24 02:01N 51°55' E 004°30'0 0.0
2018-Apr-24 01:30N 51°55' E 004°30'0 0.0
2018-Apr-24 01:00N 51°55' E 004°30'0 0.0
2018-Apr-24 00:31N 51°55' E 004°30'0 0.0
2018-Apr-24 00:00N 51°55' E 004°30'0 0.0
2018-Apr-23 23:30N 51°55' E 004°30'0 0.0
2018-Apr-23 23:00N 51°55' E 004°30'0 0.0
2018-Apr-23 22:30N 51°55' E 004°30'0 0.0
2018-Apr-23 22:00N 51°55' E 004°30'0 0.0
2018-Apr-23 21:30N 51°55' E 004°30'0 0.0
2018-Apr-23 21:00N 51°55' E 004°30'0 0.0
2018-Apr-23 20:30N 51°55' E 004°30'0 0.0
2018-Apr-23 20:00N 51°55' E 004°30'0 0.0
2018-Apr-23 19:30N 51°55' E 004°30'0 0.0
2018-Apr-23 19:00N 51°55' E 004°30'0 0.0
2018-Apr-23 18:30N 51°55' E 004°30'0 0.0
2018-Apr-23 18:01N 51°55' E 004°30'0 0.0
2018-Apr-23 17:31N 51°55' E 004°30'0 0.0
2018-Apr-23 17:00N 51°55' E 004°30'0 0.0
2018-Apr-23 16:30N 51°55' E 004°30'0 0.0
2018-Apr-23 16:00N 51°55' E 004°30'0 0.0
2018-Apr-23 15:30N 51°55' E 004°30'0 0.0
2018-Apr-23 15:00N 51°55' E 004°30'0 0.0
2018-Apr-23 14:30N 51°55' E 004°30'0 0.0
2018-Apr-23 14:00N 51°55' E 004°30'0 0.0
2018-Apr-23 13:30N 51°55' E 004°30'0 0.0
2018-Apr-23 13:01N 51°55' E 004°30'0 0.0
2018-Apr-23 12:30N 51°55' E 004°30'0 0.0
2018-Apr-23 12:00N 51°55' E 004°30'0 0.0
2018-Apr-23 11:30N 51°55' E 004°30'0 0.0
2018-Apr-23 11:00N 51°55' E 004°30'0 0.0
2018-Apr-23 10:30N 51°55' E 004°30'0 0.0
2018-Apr-23 10:00N 51°55' E 004°30'0 0.0
2018-Apr-23 09:30N 51°55' E 004°30'0 0.0
2018-Apr-23 09:00N 51°55' E 004°30'0 0.0
2018-Apr-23 08:30N 51°55' E 004°30'0 0.0
2018-Apr-23 08:00N 51°55' E 004°30'0 0.0
2018-Apr-23 07:31N 51°55' E 004°30'0 0.0
2018-Apr-23 07:00N 51°55' E 004°30'0 0.0
2018-Apr-23 06:30N 51°55' E 004°30'0 0.0
2018-Apr-23 06:00N 51°55' E 004°30'0 0.0
2018-Apr-23 05:30N 51°55' E 004°30'0 0.0
2018-Apr-23 05:00N 51°55' E 004°30'0 0.0
2018-Apr-23 04:30N 51°55' E 004°30'0 0.0
2018-Apr-23 04:00N 51°55' E 004°30'0 0.0
2018-Apr-23 03:30N 51°55' E 004°30'0 0.0
2018-Apr-23 03:01N 51°55' E 004°30'0 0.0
2018-Apr-23 02:31N 51°55' E 004°30'0 0.0
2018-Apr-23 02:00N 51°55' E 004°30'0 0.0
2018-Apr-23 01:31N 51°55' E 004°30'0 0.0
2018-Apr-23 01:00N 51°55' E 004°30'0 0.0
2018-Apr-23 00:30N 51°55' E 004°30'0 0.0
2018-Apr-23 00:00N 51°55' E 004°30'0 0.0
2018-Apr-22 23:30N 51°55' E 004°30'0 0.0
2018-Apr-22 23:00N 51°55' E 004°30'0 0.0
2018-Apr-22 22:30N 51°55' E 004°30'0 0.0
2018-Apr-22 22:00N 51°55' E 004°30'0 0.0
2018-Apr-22 21:31N 51°55' E 004°30'0 0.0
2018-Apr-22 21:01N 51°55' E 004°30'0 0.0
2018-Apr-22 20:30N 51°55' E 004°30'0 0.0
2018-Apr-22 20:00N 51°55' E 004°30'0 0.0
2018-Apr-22 19:30N 51°55' E 004°30'0 0.0
2018-Apr-22 19:01N 51°55' E 004°30'0 0.0
2018-Apr-22 18:30N 51°55' E 004°30'0 0.0
2018-Apr-22 18:00N 51°55' E 004°30'0 0.0
2018-Apr-22 17:31N 51°55' E 004°30'0 0.0
2018-Apr-22 17:00N 51°55' E 004°30'0 0.0
2018-Apr-22 16:30N 51°55' E 004°30'0 0.0
2018-Apr-22 16:00N 51°55' E 004°30'0 0.0
2018-Apr-22 15:30N 51°55' E 004°30'0 0.0
2018-Apr-22 15:00N 51°55' E 004°30'0 0.0
2018-Apr-22 14:30N 51°55' E 004°30'0 0.0
2018-Apr-22 14:01N 51°55' E 004°30'0 0.0
2018-Apr-22 13:30N 51°55' E 004°30'0 0.0
2018-Apr-22 13:00N 51°55' E 004°30'0 0.0
2018-Apr-22 12:31N 51°55' E 004°30'0 0.0
2018-Apr-22 12:00N 51°55' E 004°30'0 0.0
2018-Apr-22 11:31N 51°55' E 004°30'0 0.0
2018-Apr-22 11:00N 51°55' E 004°30'0 0.0
2018-Apr-22 10:30N 51°55' E 004°30'0 0.0
2018-Apr-22 10:01N 51°55' E 004°30'0 0.0
2018-Apr-22 09:30N 51°55' E 004°30'0 0.0
2018-Apr-22 09:00N 51°55' E 004°30'0 0.0
2018-Apr-22 08:30N 51°55' E 004°30'0 0.0
2018-Apr-22 08:00N 51°55' E 004°30'0 0.0
2018-Apr-22 07:30N 51°55' E 004°30'0 0.0
2018-Apr-22 07:01N 51°55' E 004°30'0 0.0
2018-Apr-22 06:30N 51°55' E 004°30'0 0.0
2018-Apr-22 06:00N 51°55' E 004°30'0 0.0
2018-Apr-22 05:30N 51°55' E 004°30'0 0.0
2018-Apr-22 05:00N 51°55' E 004°30'0 0.0
2018-Apr-22 04:30N 51°55' E 004°30'0 0.0
2018-Apr-22 04:01N 51°55' E 004°30'0 0.0
2018-Apr-22 03:31N 51°55' E 004°30'0 0.0
2018-Apr-22 03:00N 51°55' E 004°30'0 0.0
2018-Apr-22 02:30N 51°55' E 004°30'0 0.0
2018-Apr-22 02:00N 51°55' E 004°30'0 0.0
2018-Apr-22 01:31N 51°55' E 004°30'0 0.0
2018-Apr-22 01:00N 51°55' E 004°30'0 0.0
2018-Apr-22 00:30N 51°55' E 004°30'0 0.0
2018-Apr-22 00:00N 51°55' E 004°30'0 0.0
2018-Apr-21 23:31N 51°55' E 004°30'0 0.0
2018-Apr-21 23:01N 51°55' E 004°30'0 0.0
2018-Apr-21 22:31N 51°55' E 004°30'0 0.0
2018-Apr-21 22:00N 51°55' E 004°30'0 0.0
2018-Apr-21 21:30N 51°55' E 004°30'0 0.0
2018-Apr-21 21:00N 51°55' E 004°30'0 0.0
2018-Apr-21 20:30N 51°55' E 004°30'0 0.0
2018-Apr-21 20:00N 51°55' E 004°30'0 0.0
2018-Apr-21 19:30N 51°55' E 004°30'0 0.0
2018-Apr-21 19:00N 51°55' E 004°30'0 0.0
2018-Apr-21 18:31N 51°55' E 004°30'0 0.0
2018-Apr-21 18:01N 51°55' E 004°30'0 0.0
2018-Apr-21 17:31N 51°55' E 004°30'0 0.0
2018-Apr-21 17:01N 51°55' E 004°30'0 0.0
2018-Apr-21 16:30N 51°55' E 004°30'0 0.0
2018-Apr-21 16:00N 51°55' E 004°30'0 0.0
2018-Apr-21 15:31N 51°55' E 004°30'0 0.0
2018-Apr-21 15:01N 51°55' E 004°30'0 0.0
2018-Apr-21 14:30N 51°55' E 004°30'0 0.0
2018-Apr-21 14:00N 51°55' E 004°30'0 0.0
2018-Apr-21 13:30N 51°55' E 004°30'0 0.0
2018-Apr-21 13:00N 51°55' E 004°30'0 0.0
2018-Apr-21 12:30N 51°55' E 004°30'0 0.0
2018-Apr-21 12:01N 51°55' E 004°30'0 0.0
2018-Apr-21 11:31N 51°55' E 004°30'0 0.0
2018-Apr-21 11:00N 51°55' E 004°30'0 0.0
2018-Apr-21 10:30N 51°55' E 004°30'0 0.0
2018-Apr-21 10:00N 51°55' E 004°30'0 0.0
2018-Apr-21 09:31N 51°55' E 004°30'0 0.0
2018-Apr-21 09:00N 51°55' E 004°30'0 0.0
2018-Apr-21 08:30N 51°55' E 004°30'0 0.0
2018-Apr-21 08:00N 51°55' E 004°30'0 0.0
2018-Apr-21 07:30N 51°55' E 004°30'0 0.0
2018-Apr-21 07:00N 51°55' E 004°30'0 0.0
2018-Apr-21 06:30N 51°55' E 004°30'0 0.0
2018-Apr-21 06:00N 51°55' E 004°30'0 0.0
2018-Apr-21 05:31N 51°55' E 004°30'0 0.0
2018-Apr-21 05:00N 51°55' E 004°30'0 0.0
2018-Apr-21 04:30N 51°55' E 004°30'0 0.0
2018-Apr-21 04:01N 51°55' E 004°30'0 0.0
2018-Apr-21 03:30N 51°55' E 004°30'0 0.0
2018-Apr-21 03:01N 51°55' E 004°30'0 0.0
2018-Apr-21 02:30N 51°55' E 004°30'0 0.0
2018-Apr-21 02:00N 51°55' E 004°30'0 0.0
2018-Apr-21 01:30N 51°55' E 004°30'0 0.0
2018-Apr-21 01:00N 51°55' E 004°30'0 0.0
2018-Apr-21 00:31N 51°55' E 004°30'0 0.0
2018-Apr-21 00:01N 51°55' E 004°30'0 0.0
2018-Apr-20 23:30N 51°55' E 004°30'0 0.0
2018-Apr-20 23:00N 51°55' E 004°30'0 0.0
2018-Apr-20 22:30N 51°55' E 004°30'0 0.0
2018-Apr-20 22:00N 51°55' E 004°30'0 0.0
2018-Apr-20 21:30N 51°55' E 004°30'0 0.0
2018-Apr-20 21:01N 51°55' E 004°30'0 0.0
2018-Apr-20 20:30N 51°55' E 004°30'0 0.0
2018-Apr-20 20:00N 51°55' E 004°30'0 0.0
2018-Apr-20 19:31N 51°55' E 004°30'0 0.0
2018-Apr-20 19:00N 51°55' E 004°30'0 0.0
2018-Apr-20 18:31N 51°55' E 004°30'0 0.0
2018-Apr-20 18:01N 51°55' E 004°30'0 0.0
2018-Apr-20 17:30N 51°55' E 004°30'0 0.0
2018-Apr-20 17:01N 51°55' E 004°30'0 0.0
2018-Apr-20 16:31N 51°55' E 004°30'0 0.0
2018-Apr-20 16:00N 51°55' E 004°30'0 0.0
2018-Apr-20 15:30N 51°55' E 004°30'0 0.0
2018-Apr-20 15:01N 51°55' E 004°30'0 0.0
2018-Apr-20 14:31N 51°55' E 004°30'0 0.0
2018-Apr-20 14:00N 51°55' E 004°30'0 0.0
2018-Apr-20 13:30N 51°55' E 004°30'0 0.0
2018-Apr-20 13:00N 51°55' E 004°30'0 0.0
2018-Apr-20 12:30N 51°55' E 004°30'0 0.0
2018-Apr-20 12:01N 51°55' E 004°30'0 0.0
2018-Apr-20 11:30N 51°55' E 004°30'0 0.0
2018-Apr-20 11:00N 51°55' E 004°30'0 0.0
2018-Apr-20 10:30N 51°55' E 004°30'0 0.0
2018-Apr-20 10:00N 51°55' E 004°30'0 0.0
2018-Apr-20 09:30N 51°55' E 004°30'0 0.0
2018-Apr-20 09:00N 51°55' E 004°30'0 0.0
2018-Apr-20 08:31N 51°55' E 004°30'0 0.0
2018-Apr-20 08:00N 51°55' E 004°30'0 0.0
2018-Apr-20 07:31N 51°55' E 004°30'0 0.0
2018-Apr-20 07:00N 51°55' E 004°30'0 0.0
2018-Apr-20 06:30N 51°55' E 004°30'0 0.0
2018-Apr-20 06:00N 51°55' E 004°30'0 0.0
2018-Apr-20 05:31N 51°55' E 004°30'0 0.0
2018-Apr-20 05:00N 51°55' E 004°30'0 0.0
2018-Apr-20 04:30N 51°55' E 004°30'0 0.0
2018-Apr-20 04:00N 51°55' E 004°30'0 0.0
2018-Apr-20 03:31N 51°55' E 004°30'0 0.0
2018-Apr-20 03:00N 51°55' E 004°30'0 0.0
2018-Apr-20 02:31N 51°55' E 004°30'0 0.0
2018-Apr-20 02:01N 51°55' E 004°30'0 0.0
2018-Apr-20 01:30N 51°55' E 004°30'0 0.0
2018-Apr-20 01:00N 51°55' E 004°30'0 0.0
2018-Apr-20 00:30N 51°55' E 004°30'0 0.0
2018-Apr-20 00:00N 51°55' E 004°30'0 0.0
2018-Apr-19 23:30N 51°55' E 004°30'0 0.0
2018-Apr-19 23:00N 51°55' E 004°30'0 0.0
2018-Apr-19 22:31N 51°55' E 004°30'0 0.0
2018-Apr-19 22:01N 51°55' E 004°30'0 0.0
2018-Apr-19 21:30N 51°55' E 004°30'0 0.0
2018-Apr-19 21:00N 51°55' E 004°30'0 0.0
2018-Apr-19 20:31N 51°55' E 004°30'0 0.0
2018-Apr-19 20:00N 51°55' E 004°30'0 0.0
2018-Apr-19 19:30N 51°55' E 004°30'0 0.0
2018-Apr-19 19:01N 51°55' E 004°30'0 0.0
2018-Apr-19 18:31N 51°55' E 004°30'0 0.0
2018-Apr-19 18:01N 51°55' E 004°30'0 0.0
2018-Apr-19 17:31N 51°55' E 004°30'0 0.0
2018-Apr-19 17:01N 51°55' E 004°30'0 0.0
2018-Apr-19 16:31N 51°55' E 004°30'0 0.0
2018-Apr-19 16:00N 51°55' E 004°30'0 0.0
2018-Apr-19 15:31N 51°55' E 004°30'0 0.0
2018-Apr-19 15:01N 51°55' E 004°30'0 0.0
2018-Apr-19 14:31N 51°55' E 004°30'0 0.0
2018-Apr-19 14:00N 51°55' E 004°30'0 0.0
2018-Apr-19 13:31N 51°55' E 004°30'0 0.0
2018-Apr-19 13:01N 51°55' E 004°30'0 0.0
2018-Apr-19 12:30N 51°55' E 004°30'0 0.0
2018-Apr-19 12:01N 51°55' E 004°30'0 0.0
2018-Apr-19 11:30N 51°55' E 004°30'0 0.0
2018-Apr-19 11:00N 51°55' E 004°30'0 0.0
2018-Apr-19 10:30N 51°55' E 004°30'0 0.0
2018-Apr-19 10:01N 51°55' E 004°30'0 0.0
2018-Apr-19 09:31N 51°55' E 004°30'0 0.0
2018-Apr-19 09:01N 51°55' E 004°30'0 0.0
2018-Apr-19 08:30N 51°55' E 004°30'0 0.0
2018-Apr-19 08:00N 51°55' E 004°30'0 0.0
2018-Apr-19 07:30N 51°55' E 004°30'0 0.0
2018-Apr-19 07:00N 51°55' E 004°30'0 0.0
2018-Apr-19 06:30N 51°55' E 004°30'0 0.0
2018-Apr-19 06:01N 51°55' E 004°30'0 0.0
2018-Apr-19 05:31N 51°55' E 004°30'0 0.0
2018-Apr-19 05:01N 51°55' E 004°30'0 0.0
2018-Apr-19 04:31N 51°55' E 004°30'0 0.0
2018-Apr-19 04:01N 51°55' E 004°30'0 0.0
2018-Apr-19 03:31N 51°55' E 004°30'0 0.0
2018-Apr-19 03:00N 51°55' E 004°30'0 0.0
2018-Apr-19 02:30N 51°55' E 004°30'0 0.0
2018-Apr-19 02:01N 51°55' E 004°30'0 0.0
2018-Apr-19 01:30N 51°55' E 004°30'0 0.0
2018-Apr-19 01:00N 51°55' E 004°30'0 0.0
2018-Apr-19 00:30N 51°55' E 004°30'0 0.0
2018-Apr-19 00:00N 51°55' E 004°30'0 0.0
2018-Apr-18 23:30N 51°55' E 004°30'0 0.0
2018-Apr-18 23:00N 51°55' E 004°30'0 0.0
2018-Apr-18 22:30N 51°55' E 004°30'0 0.0
2018-Apr-18 22:00N 51°55' E 004°30'0 0.0
2018-Apr-18 21:30N 51°55' E 004°30'0 0.0
2018-Apr-18 21:00N 51°55' E 004°30'0 0.0
2018-Apr-18 20:30N 51°55' E 004°30'0 0.0
2018-Apr-18 20:00N 51°55' E 004°30'0 0.0
2018-Apr-18 19:30N 51°55' E 004°30'0 0.0
2018-Apr-18 19:00N 51°55' E 004°30'0 0.0
2018-Apr-18 18:31N 51°55' E 004°30'0 0.0
2018-Apr-18 18:01N 51°55' E 004°30'0 0.0
2018-Apr-18 17:30N 51°55' E 004°30'0 0.0
2018-Apr-18 17:00N 51°55' E 004°30'0 0.0
2018-Apr-18 16:31N 51°55' E 004°30'0 0.0
2018-Apr-18 16:01N 51°55' E 004°30'0 0.0
2018-Apr-18 15:31N 51°55' E 004°30'0 0.0
2018-Apr-18 15:00N 51°55' E 004°30'0 0.0
2018-Apr-18 14:30N 51°55' E 004°30'0 0.0
2018-Apr-18 14:00N 51°55' E 004°30'0 0.0
2018-Apr-18 13:30N 51°55' E 004°30'0 0.0
2018-Apr-18 13:01N 51°55' E 004°30'0 0.0
2018-Apr-18 12:30N 51°55' E 004°30'0 0.0
2018-Apr-18 12:00N 51°55' E 004°30'0 0.0
2018-Apr-18 11:30N 51°55' E 004°30'0 0.0
2018-Apr-18 11:00N 51°55' E 004°30'0 0.0
2018-Apr-18 10:30N 51°55' E 004°30'0 0.0
2018-Apr-18 10:01N 51°55' E 004°30'0 0.0
2018-Apr-18 09:30N 51°55' E 004°30'0 0.0
2018-Apr-18 09:01N 51°55' E 004°30'0 0.0
2018-Apr-18 08:30N 51°55' E 004°30'0 0.0
2018-Apr-18 08:01N 51°55' E 004°30'0 0.0
2018-Apr-18 07:30N 51°55' E 004°30'0 0.0
2018-Apr-18 07:00N 51°55' E 004°30'0 0.0
2018-Apr-18 06:30N 51°55' E 004°30'0 0.0
2018-Apr-18 06:01N 51°55' E 004°30'0 0.0
2018-Apr-18 05:31N 51°55' E 004°30'0 0.0
2018-Apr-18 05:00N 51°55' E 004°30'0 0.0
2018-Apr-18 04:31N 51°55' E 004°30'0 0.0
2018-Apr-18 04:01N 51°55' E 004°30'0 0.0
2018-Apr-18 03:31N 51°55' E 004°30'0 0.0
2018-Apr-18 03:00N 51°55' E 004°30'0 0.0
2018-Apr-18 02:30N 51°55' E 004°30'0 0.0
2018-Apr-18 02:00N 51°55' E 004°30'0 0.0
2018-Apr-18 01:30N 51°55' E 004°30'0 0.0
2018-Apr-18 01:00N 51°55' E 004°30'0 0.0
2018-Apr-18 00:31N 51°55' E 004°30'0 0.0
2018-Apr-18 00:00N 51°55' E 004°30'0 0.0
2018-Apr-17 23:30N 51°55' E 004°30'0 0.0
2018-Apr-17 23:01N 51°55' E 004°30'0 0.0
2018-Apr-17 22:31N 51°55' E 004°30'0 0.0
2018-Apr-17 22:00N 51°55' E 004°30'0 0.0
2018-Apr-17 21:30N 51°55' E 004°30'0 0.0
2018-Apr-17 21:00N 51°55' E 004°30'0 0.0
2018-Apr-17 20:30N 51°55' E 004°30'0 0.0
2018-Apr-17 20:00N 51°55' E 004°30'0 0.0
2018-Apr-17 19:31N 51°55' E 004°30'0 0.0
2018-Apr-17 19:00N 51°55' E 004°30'0 0.0
2018-Apr-17 18:31N 51°55' E 004°30'0 0.0
2018-Apr-17 18:01N 51°55' E 004°30'0 0.0
2018-Apr-17 17:30N 51°55' E 004°30'0 0.0
2018-Apr-17 17:00N 51°55' E 004°30'0 0.0
2018-Apr-17 16:30N 51°55' E 004°30'0 0.0
2018-Apr-17 16:00N 51°55' E 004°30'0 0.0
2018-Apr-17 15:30N 51°55' E 004°30'0 0.1
2018-Apr-17 15:00N 51°55' E 004°30'0 0.0
2018-Apr-17 14:31N 51°55' E 004°30'1 1.1
2018-Apr-17 14:00N 51°55' E 004°29'2 4.1
2018-Apr-17 13:30N 51°54' E 004°33'5 9.8
2018-Apr-17 13:00N 51°52' E 004°39'3 5.2
2018-Apr-17 12:30N 51°49' E 004°40'0 0.0
2018-Apr-17 12:01N 51°49' E 004°40'1 1.8
2018-Apr-17 11:31N 51°49' E 004°41'510.5
2018-Apr-17 11:01N 51°49' E 004°49'510.3
2018-Apr-17 10:31N 51°50' E 004°58'510.5
2018-Apr-17 10:00N 51°49' E 005°06'510.3
2018-Apr-17 09:29N 51°49' E 005°15'5 9.6
2018-Apr-17 09:00N 51°49' E 005°22'11 9.7
2018-Apr-17 07:52N 51°54' E 005°38'11 9.4
2018-Apr-17 06:44N 51°53' E 005°55'2 9.7
2018-Apr-17 06:30N 51°51' E 005°58'3 5.5
2018-Apr-17 06:00N 51°53' E 006°02'  

Dump ship's entire track history